AirNav   Get $300 off a Bose A20
 
 1048 users online  

N17 Vaughn Municipal Airport
Vaughn, New Mexico, USA

GOING TO VAUGHN?


FAA INFORMATION EFFECTIVE 28 MARCH 2019

Location

FAA Identifier: N17
Lat/Long: 34-36-16.4890N / 105-11-30.5590W
34-36.274817N / 105-11.509317W
34.6045803 / -105.1918219
(estimated)
Elevation: 5935.9 ft. / 1809 m (estimated)
From city: 1 mile NE of VAUGHN, NM
Time zone: UTC -6 (UTC -7 during Standard Time)
Zip code: 88321

Airport Operations

Airport use: Open to the public
Activation date: 02/2007
Control tower: no
ARTCC: ALBUQUERQUE CENTER
FSS: ALBUQUERQUE FLIGHT SERVICE STATION
NOTAMs facility: ABQ (NOTAM-D service available)
Attendance: UNATNDD
Wind indicator: lighted, LIGHTED WIND INDICATOR OUT OF SERVICE INDEFINITELY.
Segmented circle: yes
Beacon: white-green (lighted land airport)
AIRPORT BEACON OUT OF SERVICE INDEFINITELY. Operates sunset to sunrise.

Airport Communications

CTAF: 122.9

Nearby radio navigation aids

VOR radial/distance  VOR name  Freq  Var
CNXr046/28.0CORONA VORTAC115.5013E
ACHr182/31.3ANTON CHICO VORTAC117.8012E

Airport Services

Runway Information

Runway 9/27

Dimensions: 5150 x 60 ft. / 1570 x 18 m
Surface: asphalt, in good condition
Weight bearing capacity: 
PCN 3 /F/D/Y/T
Single wheel: 12.5
Runway edge lights: EDGE LIGHTING RETRO-REFLECTIVE.
Gradient: WEST
RUNWAY 9  RUNWAY 27
Latitude: 34-36.316000N34-36.233583N
Longitude: 105-12.020300W105-10.998333W
Elevation: 5935.9 ft.5906.5 ft.
Gradient: 0.6% UP
Traffic pattern: leftright
Runway heading: 096 true276 true
Markings: basic, in good conditionbasic, in good condition
Obstructions: 38 ft. pole, 1460 ft. from runway, 234 ft. right of centerline, 33:1 slope to clearnone

Airport Ownership and Management from official FAA records

Ownership: Publicly-owned
Owner: TOWN OF VAUGHN
PO BOX 278
VAUGHN, NM 88353
Phone 575-584-2301
Manager: MAYOR ROMAN GARCIA
PO BOX 278
VAUGHN, NM 88353
Phone 575-584-2301
EMERGENCY PHONE: 575-584-2204.

Airport Operational Statistics

Aircraft operations: 56/year *
100% local general aviation
* for 12-month period ending 04 April 2018

Additional Remarks

GATE LOCK COMBINATION IS AIRPORT ELEVATION.
417 FT AGL TOWERS 1 MILE SOUTH OF RY.

Instrument Procedures

There are no published instrument procedures at N17.

Some nearby airports with instrument procedures:

0E0 - Moriarty Municipal Airport (46 nm NW)
KLVS - Las Vegas Municipal Airport (63 nm N)
KSRR - Sierra Blanca Regional Airport (71 nm S)
KABQ - Albuquerque International Sunport Airport (74 nm W)
KSAF - Santa Fe Municipal Airport (75 nm NW)
 
Loc | Ops | Rwys | IFR | FBO | Links
Com | Nav | Svcs | Stats | Notes

Chandler Aviation LLC
 
Area around N17 (Vaughn Municipal Airport)
 
Road maps at: MapQuest Bing Google
 
Aerial photo
WARNING: Photo may not be current or correct
Aerial photo of N17 (Vaughn Municipal Airport)
Photo courtesy of Armstrong Consultants, Inc.
Photo taken 20-Feb-2007

Do you have a better or more recent aerial photo of Vaughn Municipal Airport that you would like to share? If so, please send us your photo.

 
Sectional chart

 
Airport distance calculator
Flying to Vaughn Municipal Airport? Find the distance to fly.

From to N17

Sunrise and sunset
Times for 22-Apr-2019
 Local
(UTC-6)
 Zulu
(UTC)
Morning civil twilight05:5511:55
Sunrise06:2212:22
Sunset19:3701:37
Evening civil twilight20:0302:03

Current date and time
Zulu (UTC)  23-Apr-2019 00:13:44
Local (UTC-6)  22-Apr-2019 18:13:44
 
METAR
KCQC 
33nm NW 
ASOS 505-472-4551
222353Z AUTO 08022G30KT 10SM OVC110 12/02 A3012 RMK AO2 PK WND 08030/2352 SLP148 T01170017 10122 20106 58013
KSXU 
34nm NE 
222355Z AUTO 06011KT 10SM SCT046 BKN110 16/05 A3010 RMK AO2 LTG DSNT NW T01550052 10176 20152
K0E0 
46nm NW 
222355Z AUTO 09018G24KT 10SM SCT120 16/03 A3009 RMK AO2 LTG DSNT NE T01600028 10172 20155
TAF
NOTAMs
Click for the latest NOTAMs
NOTAMs are issued by the DoD/FAA and will open in a separate window not controlled by AirNav.

 

 
 

Would you like to see your business listed on this page?

 If your business provides an interesting product or service to pilots, flight crews, aircraft, or users of the Vaughn Municipal Airport, you should consider listing it here.  To start the listing process, click on the button below
 
Add a business
 

Other Pages about Vaughn Municipal Airport

Update a link
 
Copyright © AirNav, LLC. All rights reserved. Privacy Policy  Contact